Check out our new BloomSky Weather System.

Active alerts

Houston, TX
  Details for Houston, TX Dense Fog Advisory


Thunder radar  blitzortung!


Rain radar more information rain snow radar


Visit our other weather sites:

Template documentation
and downloads

And another site



Weather Underground History page Text

Daily Summary for April 2, 2017 Units:  Metric    English   Both
« Previous Day
Next Day »
Daily Weekly Monthly Yearly Custom
  High: Low: Average:
Temperature: 27.2 °C 17.8 °C 22.6 °C
Dew Point: 24.3 °C 16.9 °C 20.8 °C
Humidity: 98 % 74 % 90 %
Wind Speed: 25.7 km/h 0 km/h 4.8 km/h
Wind Gust: 30.6 km/h - -
Wind:- - SSE
Pressure: 1011.1 hPa 1001.9 hPa -
Precipitation: 16.26 mm    
Historical Graphs
 
 
Tabular Data for April 2, 2017
Time Temperature Dew Point Pressure Wind Wind Speed Wind Gust Humidity Rainfall Rate (Hourly)
00:00 21.8 °C 19.7 °C 1011.1 hPa ESE 1.6 km/h 12.9 km/h 88 % 0 mm
00:05 21.7 °C 19.8 °C 1011.1 hPa SE 3.2 km/h 14.5 km/h 89 % 0 mm
00:10 21.7 °C 19.8 °C 1010.7 hPa ESE 1.6 km/h 14.5 km/h 89 % 0 mm
00:15 21.7 °C 19.8 °C 1010.7 hPa ENE 3.2 km/h 14.5 km/h 89 % 0 mm
00:20 21.6 °C 19.7 °C 1010.7 hPa East 1.6 km/h 12.9 km/h 89 % 0 mm
00:25 21.6 °C 19.9 °C 1010.7 hPa ESE 6.4 km/h 12.9 km/h 90 % 0 mm
00:30 21.6 °C 19.9 °C 1010.7 hPa East 4.8 km/h 12.9 km/h 90 % 0 mm
00:35 21.6 °C 19.9 °C 1010.7 hPa SE 6.4 km/h 12.9 km/h 90 % 0 mm
00:40 21.5 °C 19.8 °C 1010.4 hPa ESE 1.6 km/h 12.9 km/h 90 % 0 mm
00:45 21.5 °C 20 °C 1010.4 hPa East 4.8 km/h 16.1 km/h 91 % 0 mm
00:50 21.5 °C 20 °C 1010 hPa East 3.2 km/h 16.1 km/h 91 % 0 mm
00:55 21.5 °C 20 °C 1010.4 hPa ENE 11.3 km/h 17.7 km/h 91 % 0 mm
01:00 21.6 °C 20.1 °C 1010.4 hPa SE 3.2 km/h 17.7 km/h 91 % 0 mm
01:05 21.6 °C 20.1 °C 1010.4 hPa South 1.6 km/h 17.7 km/h 91 % 0 mm
01:10 21.6 °C 20.1 °C 1010 hPa East 3.2 km/h 12.9 km/h 91 % 0 mm
01:15 21.6 °C 20.1 °C 1010.4 hPa East 3.2 km/h 12.9 km/h 91 % 0 mm
01:20 21.7 °C 20.2 °C 1010 hPa SW 1.6 km/h 12.9 km/h 91 % 0 mm
01:25 21.7 °C 20.2 °C 1010 hPa SSE 1.6 km/h 11.3 km/h 91 % 0 mm
01:30 21.8 °C 20.3 °C 1010 hPa Calm   11.3 km/h 91 % 0 mm
01:35 21.8 °C 20.3 °C 1010 hPa Calm   11.3 km/h 91 % 0 mm
01:40 21.8 °C 20.3 °C 1010 hPa ESE 1.6 km/h 11.3 km/h 91 % 0 mm
01:45 21.9 °C 20.5 °C 1010 hPa ESE 1.6 km/h 9.7 km/h 92 % 0 mm
01:50 21.9 °C 20.5 °C 1010 hPa ESE 1.6 km/h 9.7 km/h 92 % 0 mm
01:55 22 °C 20.5 °C 1010 hPa SE 6.4 km/h 9.7 km/h 91 % 0 mm
02:00 22.1 °C 20.6 °C 1009.7 hPa Calm   14.5 km/h 91 % 0 mm
02:05 22.1 °C 20.6 °C 1009.7 hPa SE 1.6 km/h 14.5 km/h 91 % 0 mm
02:10 22.1 °C 20.6 °C 1009.7 hPa ESE 9.7 km/h 14.5 km/h 91 % 0 mm
02:15 22.2 °C 20.7 °C 1009.4 hPa East 9.7 km/h 16.1 km/h 91 % 0 mm
02:20 22.3 °C 20.8 °C 1009.4 hPa SE 1.6 km/h 16.1 km/h 91 % 0 mm
02:25 22.3 °C 20.8 °C 1009.4 hPa ESE 4.8 km/h 16.1 km/h 91 % 0 mm
02:30 22.4 °C 20.9 °C 1009.4 hPa SSE 4.8 km/h 16.1 km/h 91 % 0 mm
02:35 22.4 °C 20.9 °C 1009 hPa SSE 6.4 km/h 9.7 km/h 91 % 0 mm
02:40 22.4 °C 20.9 °C 1008.7 hPa SSE 4.8 km/h 17.7 km/h 91 % 0 mm
02:45 22.4 °C 20.9 °C 1008.7 hPa East 9.7 km/h 17.7 km/h 91 % 0 mm
02:50 22.4 °C 20.9 °C 1008.7 hPa ESE 1.6 km/h 17.7 km/h 91 % 0 mm
02:55 22.4 °C 20.9 °C 1008.7 hPa ESE 3.2 km/h 14.5 km/h 91 % 0 mm
03:00 22.3 °C 20.8 °C 1008.4 hPa SSE 3.2 km/h 14.5 km/h 91 % 0 mm
03:05 22.3 °C 20.8 °C 1008.4 hPa East 1.6 km/h 11.3 km/h 91 % 0 mm
03:10 22.2 °C 20.8 °C 1008.4 hPa ENE 1.6 km/h 11.3 km/h 92 % 0 mm
03:15 22.2 °C 20.8 °C 1008.4 hPa Calm   9.7 km/h 92 % 0 mm
03:20 22.2 °C 20.8 °C 1008.4 hPa ENE 9.7 km/h 11.3 km/h 92 % 0 mm
03:25 22.2 °C 20.8 °C 1008.4 hPa East 3.2 km/h 11.3 km/h 92 % 0 mm
03:30 22.2 °C 20.8 °C 1008.4 hPa East 3.2 km/h 11.3 km/h 92 % 0 mm
03:35 22.2 °C 20.8 °C 1008.4 hPa Calm   11.3 km/h 92 % 0 mm
03:40 22.2 °C 20.8 °C 1008.4 hPa ESE 3.2 km/h 11.3 km/h 92 % 0 mm
03:45 22.3 °C 20.9 °C 1008 hPa ENE 1.6 km/h 11.3 km/h 92 % 0 mm
03:50 22.2 °C 20.8 °C 1008 hPa East 3.2 km/h 12.9 km/h 92 % 0 mm
03:55 22.3 °C 21.1 °C 1008 hPa ENE 6.4 km/h 14.5 km/h 93 % 0 mm
04:00 22.3 °C 21.1 °C 1007.7 hPa SE 6.4 km/h 14.5 km/h 93 % 0 mm
04:05 22.3 °C 21.1 °C 1008 hPa SE 8 km/h 14.5 km/h 93 % 0 mm
04:10 22.3 °C 21.1 °C 1008 hPa Calm   11.3 km/h 93 % 0 mm
04:15 22.3 °C 21.1 °C 1008 hPa SE 1.6 km/h 11.3 km/h 93 % 0 mm
04:20 22.3 °C 21.1 °C 1008.4 hPa ESE 1.6 km/h 11.3 km/h 93 % 0 mm
04:25 22.3 °C 21.1 °C 1008 hPa Calm   9.7 km/h 93 % 0 mm
04:30 22.3 °C 21.1 °C 1008 hPa SSE 3.2 km/h 12.9 km/h 93 % 0 mm
04:35 22.4 °C 21.2 °C 1008 hPa ESE 3.2 km/h 12.9 km/h 93 % 0 mm
04:40 22.4 °C 21.2 °C 1008.4 hPa Calm   12.9 km/h 93 % 0 mm
04:45 22.4 °C 21.2 °C 1008 hPa Calm   6.4 km/h 93 % 0 mm
04:50 22.4 °C 21.2 °C 1008 hPa Calm   4.8 km/h 93 % 0 mm
04:55 22.4 °C 21.2 °C 1008 hPa ENE 3.2 km/h 4.8 km/h 93 % 0 mm
05:00 22.4 °C 21.2 °C 1007.7 hPa Calm   3.2 km/h 93 % 0 mm
05:05 22.3 °C 21.1 °C 1008 hPa Calm   3.2 km/h 93 % 0 mm
05:10 22.3 °C 21.3 °C 1007.7 hPa Calm   4.8 km/h 94 % 0 mm
05:15 22.2 °C 21.2 °C 1007.7 hPa ENE 6.4 km/h 6.4 km/h 94 % 0.25 mm
05:18 22.2 °C 21.2 °C 1007.3 hPa NE 1.6 km/h 4.8 km/h 94 % 0.25 mm
05:23 22.1 °C 21.1 °C 1007.3 hPa NNE 1.6 km/h 6.4 km/h 94 % 0.25 mm
05:28 22 °C 21.2 °C 1007.3 hPa East 1.6 km/h 9.7 km/h 95 % 0.25 mm
05:33 21.9 °C 21.1 °C 1007.3 hPa East 1.6 km/h 9.7 km/h 95 % 0.25 mm
05:38 21.9 °C 21.1 °C 1007.3 hPa East 3.2 km/h 9.7 km/h 95 % 0.25 mm
05:43 21.9 °C 21.2 °C 1007 hPa NNE 4.8 km/h 8 km/h 96 % 0.51 mm
05:48 21.8 °C 21.1 °C 1006.7 hPa ENE 4.8 km/h 8 km/h 96 % 0.51 mm
05:53 21.8 °C 21.1 °C 1006.7 hPa Calm   8 km/h 96 % 0.51 mm
05:58 21.7 °C 21 °C 1006.7 hPa Calm   8 km/h 96 % 0.51 mm
06:03 21.6 °C 20.9 °C 1006.7 hPa Calm   9.7 km/h 96 % 1.02 mm
06:08 21.5 °C 20.8 °C 1006.7 hPa ENE 4.8 km/h 9.7 km/h 96 % 1.02 mm
06:13 21.5 °C 21 °C 1006.7 hPa NNE 3.2 km/h 9.7 km/h 97 % 1.02 mm
06:18 21.5 °C 21 °C 1006.7 hPa ESE 1.6 km/h 9.7 km/h 97 % 0.76 mm
06:23 21.6 °C 21.1 °C 1006.7 hPa SE 1.6 km/h 9.7 km/h 97 % 0.76 mm
06:28 21.7 °C 21.2 °C 1006.3 hPa East 3.2 km/h 6.4 km/h 97 % 0.76 mm
06:33 21.9 °C 21.6 °C 1006.3 hPa SE 6.4 km/h 9.7 km/h 98 % 0.76 mm
06:38 22.3 °C 22 °C 1006.3 hPa SE 6.4 km/h 12.9 km/h 98 % 0.76 mm
06:41 22.4 °C 22.1 °C 1006.7 hPa SSE 11.3 km/h 22.5 km/h 98 % 0.51 mm
06:46 22.7 °C 22.4 °C 1006.7 hPa ESE 6.4 km/h 22.5 km/h 98 % 0.51 mm
06:51 22.7 °C 22.4 °C 1006.3 hPa SSE 9.7 km/h 22.5 km/h 98 % 0.51 mm
06:56 22.8 °C 22.5 °C 1006.3 hPa ESE 4.8 km/h 17.7 km/h 98 % 0.51 mm
07:01 22.8 °C 22.5 °C 1006.3 hPa SE 14.5 km/h 20.9 km/h 98 % 0 mm
07:06 22.9 °C 22.6 °C 1006.3 hPa SSE 6.4 km/h 20.9 km/h 98 % 0 mm
07:11 22.9 °C 22.6 °C 1006.3 hPa SSE 14.5 km/h 20.9 km/h 98 % 0 mm
07:16 22.9 °C 22.6 °C 1006.7 hPa ESE 8 km/h 19.3 km/h 98 % 0 mm
07:21 22.9 °C 22.4 °C 1006.7 hPa SE 8 km/h 19.3 km/h 97 % 0 mm
07:26 23 °C 22.5 °C 1006.7 hPa ESE 11.3 km/h 19.3 km/h 97 % 0 mm
07:31 23 °C 22.5 °C 1006.7 hPa South 11.3 km/h 19.3 km/h 97 % 0 mm
07:36 23.1 °C 22.6 °C 1006.3 hPa SE 12.9 km/h 19.3 km/h 97 % 0 mm
07:41 23.1 °C 22.6 °C 1006.7 hPa SSE 8 km/h 20.9 km/h 97 % 0 mm
07:46 23.1 °C 22.6 °C 1006.7 hPa SSE 4.8 km/h 20.9 km/h 97 % 1.02 mm
07:51 23.1 °C 22.6 °C 1006.7 hPa SSE 3.2 km/h 20.9 km/h 97 % 1.02 mm
07:56 23.1 °C 22.6 °C 1006.7 hPa SE 6.4 km/h 19.3 km/h 97 % 1.02 mm
08:01 23.1 °C 22.6 °C 1006.7 hPa SSW 12.9 km/h 19.3 km/h 97 % 1.27 mm
08:06 23.1 °C 22.6 °C 1006.3 hPa ESE 17.7 km/h 22.5 km/h 97 % 1.27 mm
08:11 23.1 °C 22.6 °C 1006.3 hPa ESE 9.7 km/h 22.5 km/h 97 % 1.52 mm
08:16 23.1 °C 22.6 °C 1006 hPa South 11.3 km/h 22.5 km/h 97 % 2.54 mm
08:21 23 °C 22.5 °C 1006 hPa ESE 11.3 km/h 22.5 km/h 97 % 2.54 mm
08:26 23 °C 22.5 °C 1005.6 hPa SE 11.3 km/h 29 km/h 97 % 2.54 mm
08:31 22.9 °C 22.4 °C 1005.3 hPa East 14.5 km/h 29 km/h 97 % 2.54 mm
08:36 22.9 °C 22.4 °C 1005.3 hPa SE 14.5 km/h 29 km/h 97 % 2.54 mm
08:41 22.9 °C 22.4 °C 1005.6 hPa SE 1.6 km/h 25.7 km/h 97 % 2.54 mm
08:46 22.9 °C 22.4 °C 1005.3 hPa SE 14.5 km/h 22.5 km/h 97 % 1.52 mm
08:51 23 °C 22.5 °C 1005.3 hPa SSE 6.4 km/h 22.5 km/h 97 % 1.52 mm
08:56 23 °C 22.5 °C 1005.3 hPa South 4.8 km/h 24.1 km/h 97 % 1.27 mm
09:01 23.1 °C 22.6 °C 1005.3 hPa East 9.7 km/h 24.1 km/h 97 % 1.27 mm
09:06 23.1 °C 22.6 °C 1005.3 hPa SE 11.3 km/h 24.1 km/h 97 % 1.27 mm
09:11 23.1 °C 22.6 °C 1005.3 hPa South 8 km/h 20.9 km/h 97 % 1.02 mm
09:16 23.2 °C 22.7 °C 1005.3 hPa SSE 11.3 km/h 20.9 km/h 97 % 0 mm
09:21 23.2 °C 22.7 °C 1005.3 hPa ESE 12.9 km/h 25.7 km/h 97 % 0 mm
09:26 23.3 °C 22.8 °C 1005.3 hPa ESE 17.7 km/h 25.7 km/h 97 % 0 mm
09:31 23.3 °C 22.6 °C 1005 hPa ESE 8 km/h 25.7 km/h 96 % 0 mm
09:32 23.3 °C 22.6 °C 1005 hPa SE 12.9 km/h 25.7 km/h 96 % 0 mm
09:37 23.4 °C 22.7 °C 1005.6 hPa SE 11.3 km/h 27.4 km/h 96 % 0 mm
09:42 23.5 °C 22.7 °C 1005.6 hPa SSE 16.1 km/h 27.4 km/h 95 % 0 mm
09:47 23.6 °C 22.8 °C 1006 hPa SSE 11.3 km/h 27.4 km/h 95 % 0 mm
09:52 23.7 °C 22.9 °C 1006 hPa SE 6.4 km/h 24.1 km/h 95 % 0 mm
09:57 23.8 °C 22.8 °C 1006 hPa SSE 6.4 km/h 24.1 km/h 94 % 0 mm
10:02 23.8 °C 22.8 °C 1006 hPa SE 9.7 km/h 24.1 km/h 94 % 0 mm
10:07 23.9 °C 22.9 °C 1006 hPa East 9.7 km/h 24.1 km/h 94 % 0 mm
10:12 24 °C 22.8 °C 1006 hPa SSE 11.3 km/h 16.1 km/h 93 % 0 mm
10:17 24.1 °C 22.9 °C 1006 hPa South 3.2 km/h 16.1 km/h 93 % 0 mm
10:27 24.2 °C 23 °C 1005.6 hPa SE 4.8 km/h 16.1 km/h 93 % 0 mm
10:32 24.2 °C 23 °C 1005.6 hPa SE 9.7 km/h 16.1 km/h 93 % 0 mm
10:37 24.3 °C 22.9 °C 1005.6 hPa SSE 4.8 km/h 17.7 km/h 92 % 0 mm
10:42 24.3 °C 22.9 °C 1005.6 hPa SE 8 km/h 17.7 km/h 92 % 0 mm
10:47 24.4 °C 23 °C 1005.6 hPa ESE 12.9 km/h 19.3 km/h 92 % 0 mm
10:52 24.5 °C 23.1 °C 1005.6 hPa SE 9.7 km/h 20.9 km/h 92 % 0 mm
10:57 24.6 °C 23 °C 1005.6 hPa SE 25.7 km/h 25.7 km/h 91 % 0 mm
11:02 24.7 °C 23.1 °C 1006 hPa SE 11.3 km/h 25.7 km/h 91 % 0 mm
11:07 24.8 °C 23 °C 1006 hPa South 8 km/h 25.7 km/h 90 % 0 mm
11:08 24.8 °C 23 °C 1006 hPa SE 9.7 km/h 25.7 km/h 90 % 0 mm
11:13 24.9 °C 23.1 °C 1006 hPa SSE 8 km/h 25.7 km/h 90 % 0 mm
11:18 24.9 °C 23.1 °C 1006 hPa SSW 12.9 km/h 20.9 km/h 90 % 0 mm
11:23 25.1 °C 23.3 °C 1006.3 hPa South 6.4 km/h 20.9 km/h 90 % 0 mm
11:28 25.2 °C 23.4 °C 1006 hPa SE 12.9 km/h 20.9 km/h 90 % 0 mm
11:33 25.3 °C 23.5 °C 1006 hPa SE 12.9 km/h 20.9 km/h 90 % 0 mm
11:38 25.5 °C 23.6 °C 1006 hPa South 24.1 km/h 27.4 km/h 89 % 0 mm
11:43 25.6 °C 23.6 °C 1005.6 hPa ESE 19.3 km/h 27.4 km/h 89 % 0 mm
11:48 25.7 °C 23.6 °C 1006 hPa East 16.1 km/h 30.6 km/h 88 % 0 mm
11:53 25.7 °C 23.6 °C 1006 hPa SSW 11.3 km/h 30.6 km/h 88 % 0 mm
11:58 25.8 °C 23.7 °C 1006 hPa SSW 14.5 km/h 30.6 km/h 88 % 0 mm
12:03 25.8 °C 23.7 °C 1006 hPa South 6.4 km/h 27.4 km/h 88 % 0 mm
12:08 25.8 °C 23.5 °C 1005.6 hPa ESE 14.5 km/h 17.7 km/h 87 % 0 mm
12:13 25.9 °C 23.6 °C 1005.3 hPa ESE 11.3 km/h 25.7 km/h 87 % 0 mm
12:18 26.1 °C 23.8 °C 1005.3 hPa SE 11.3 km/h 25.7 km/h 87 % 0 mm
12:23 26.2 °C 23.7 °C 1005 hPa SE 17.7 km/h 25.7 km/h 86 % 0 mm
12:28 26.3 °C 24 °C 1005 hPa SSE 11.3 km/h 27.4 km/h 87 % 0 mm
12:33 26.7 °C 24 °C 1004.6 hPa SW 12.9 km/h 27.4 km/h 85 % 0 mm
12:38 27.2 °C 24.3 °C 1005 hPa SE 12.9 km/h 27.4 km/h 84 % 0 mm
12:43 27.1 °C 24 °C 1005 hPa SSE 24.1 km/h 29 km/h 83 % 0 mm
12:48 26.9 °C 24 °C 1005 hPa South 14.5 km/h 29 km/h 84 % 0 mm
12:53 26.7 °C 24 °C 1004.6 hPa SE 17.7 km/h 29 km/h 85 % 0 mm
12:58 26.6 °C 24.1 °C 1005 hPa SSE 12.9 km/h 29 km/h 86 % 0 mm
13:03 26.5 °C 24 °C 1005 hPa SSE 14.5 km/h 29 km/h 86 % 0 mm
13:08 26.3 °C 24 °C 1005 hPa SSE 12.9 km/h 29 km/h 87 % 0 mm
13:13 26 °C 23.9 °C 1005 hPa SSE 6.4 km/h 20.9 km/h 88 % 0.76 mm
13:18 24.8 °C 20.9 °C 1006 hPa NW 16.1 km/h 20.9 km/h 79 % 3.05 mm
13:23 21.8 °C 18.6 °C 1006.7 hPa NW 17.7 km/h 24.1 km/h 82 % 4.06 mm
13:28 19.7 °C 17.7 °C 1005.6 hPa NNW 11.3 km/h 27.4 km/h 88 % 9.4 mm
13:29 19.5 °C 17.5 °C 1005.6 hPa WNW 9.7 km/h 27.4 km/h 88 % 9.4 mm
13:34 18.6 °C 16.9 °C 1005.6 hPa NW 8 km/h 27.4 km/h 90 % 10.41 mm
13:39 18.2 °C 16.9 °C 1006 hPa NW 9.7 km/h 27.4 km/h 92 % 10.41 mm
13:44 18.1 °C 17.1 °C 1005.6 hPa NW 8 km/h 24.1 km/h 94 % 10.67 mm
13:49 17.9 °C 16.9 °C 1005.6 hPa WNW 6.4 km/h 22.5 km/h 94 % 11.94 mm
13:54 17.8 °C 17 °C 1005.6 hPa Calm   19.3 km/h 95 % 12.19 mm
13:59 18.1 °C 17.5 °C 1005.3 hPa ENE 3.2 km/h 17.7 km/h 96 % 12.19 mm
14:04 18.1 °C 17.5 °C 1005.6 hPa NW 3.2 km/h 14.5 km/h 96 % 12.19 mm
14:09 18.3 °C 17.8 °C 1005.3 hPa NE 3.2 km/h 11.3 km/h 97 % 12.19 mm
14:14 18.6 °C 18.1 °C 1005 hPa North 1.6 km/h 9.7 km/h 97 % 11.68 mm
14:15 18.6 °C 18.1 °C 1005 hPa Calm   9.7 km/h 97 % 9.4 mm
14:20 19 °C 18.5 °C 1004.6 hPa NNW 1.6 km/h 8 km/h 97 % 8.13 mm
14:25 19.2 °C 18.9 °C 1004.6 hPa NNW 6.4 km/h 8 km/h 98 % 3.05 mm
14:30 19.7 °C 19.4 °C 1004.6 hPa North 3.2 km/h 8 km/h 98 % 2.03 mm
14:35 19.7 °C 19 °C 1004.6 hPa NNW 1.6 km/h 9.7 km/h 96 % 2.29 mm
14:40 19.9 °C 19.4 °C 1004.3 hPa NW 1.6 km/h 11.3 km/h 97 % 1.78 mm
14:45 20.2 °C 19.5 °C 1004.3 hPa NW 4.8 km/h 11.3 km/h 96 % 0.76 mm
14:50 20.4 °C 19.9 °C 1003.9 hPa NW 3.2 km/h 11.3 km/h 97 % 0.51 mm
14:55 20.6 °C 19.9 °C 1003.9 hPa NNW 8 km/h 8 km/h 96 % 0.51 mm
15:00 20.7 °C 19.7 °C 1003.9 hPa NW 6.4 km/h 12.9 km/h 94 % 0.51 mm
15:05 20.9 °C 19.7 °C 1003.9 hPa WNW 8 km/h 12.9 km/h 93 % 0.25 mm
15:10 21.2 °C 19.8 °C 1003.6 hPa NW 3.2 km/h 12.9 km/h 92 % 0.25 mm
15:15 21.9 °C 20.4 °C 1003.3 hPa NW 6.4 km/h 12.9 km/h 91 % 0.25 mm
15:20 22.1 °C 19.6 °C 1002.9 hPa NW 6.4 km/h 14.5 km/h 86 % 0.25 mm
15:25 22.4 °C 19.9 °C 1002.9 hPa North 3.2 km/h 14.5 km/h 86 % 0.25 mm
15:30 22.8 °C 20 °C 1002.9 hPa NW 4.8 km/h 14.5 km/h 84 % 0.25 mm
15:35 22.9 °C 20.1 °C 1002.9 hPa NW 11.3 km/h 11.3 km/h 84 % 0 mm
15:40 22.9 °C 19.7 °C 1002.6 hPa NNW 1.6 km/h 14.5 km/h 82 % 0 mm
15:45 23.1 °C 20.2 °C 1002.6 hPa NW 1.6 km/h 14.5 km/h 84 % 0 mm
15:50 23.5 °C 20 °C 1002.6 hPa WNW 4.8 km/h 14.5 km/h 81 % 0 mm
15:55 23.8 °C 20.7 °C 1002.6 hPa NW 3.2 km/h 11.3 km/h 83 % 0 mm
16:00 23.9 °C 20 °C 1002.6 hPa North 8 km/h 9.7 km/h 79 % 0 mm
16:05 23.8 °C 19.5 °C 1002.6 hPa Calm   9.7 km/h 77 % 0 mm
16:10 24 °C 19.9 °C 1002.3 hPa NNW 3.2 km/h 9.7 km/h 78 % 0 mm
16:15 24.3 °C 20.2 °C 1002.3 hPa ENE 1.6 km/h 9.7 km/h 78 % 0 mm
16:20 24.4 °C 19.5 °C 1002.3 hPa WSW 4.8 km/h 9.7 km/h 74 % 0 mm
16:25 24.3 °C 19.6 °C 1002.3 hPa WNW 1.6 km/h 9.7 km/h 75 % 0 mm
16:30 24.3 °C 19.4 °C 1002.3 hPa NNW 4.8 km/h 9.7 km/h 74 % 0 mm
16:35 24.2 °C 19.7 °C 1002.3 hPa WNW 1.6 km/h 8 km/h 76 % 0 mm
16:44 24 °C 19.7 °C 1002.3 hPa NNW 3.2 km/h 8 km/h 77 % 0 mm
16:49 24 °C 19.7 °C 1002.3 hPa NNW 3.2 km/h 6.4 km/h 77 % 0 mm
16:54 23.9 °C 19.6 °C 1002.3 hPa NNW 3.2 km/h 8 km/h 77 % 0 mm
16:59 23.8 °C 19.7 °C 1002.3 hPa Calm   8 km/h 78 % 0 mm
17:04 23.9 °C 19.8 °C 1002.3 hPa NE 1.6 km/h 8 km/h 78 % 0 mm
17:09 24 °C 20.1 °C 1002.3 hPa North 3.2 km/h 6.4 km/h 79 % 0 mm
17:14 23.9 °C 20 °C 1001.9 hPa ENE 1.6 km/h 4.8 km/h 79 % 0 mm
17:19 23.8 °C 19.9 °C 1002.3 hPa Calm   4.8 km/h 79 % 0 mm
17:24 23.9 °C 20 °C 1001.9 hPa ENE 1.6 km/h 4.8 km/h 79 % 0 mm
17:29 23.9 °C 19.8 °C 1001.9 hPa ESE 1.6 km/h 4.8 km/h 78 % 0 mm
17:34 23.9 °C 19.8 °C 1002.3 hPa Calm   4.8 km/h 78 % 0 mm
17:39 23.9 °C 19.8 °C 1001.9 hPa Calm   4.8 km/h 78 % 0 mm
17:44 23.9 °C 19.8 °C 1001.9 hPa NNE 1.6 km/h 4.8 km/h 78 % 0 mm
17:50 23.9 °C 19.6 °C 1001.9 hPa Calm   3.2 km/h 77 % 0 mm
17:55 23.8 °C 19.9 °C 1002.3 hPa East 1.6 km/h 3.2 km/h 79 % 0 mm
18:00 23.8 °C 19.9 °C 1002.3 hPa Calm   4.8 km/h 79 % 0 mm
18:05 23.8 °C 19.9 °C 1002.3 hPa East 1.6 km/h 4.8 km/h 79 % 0 mm
18:10 23.7 °C 19.8 °C 1002.3 hPa Calm   1.6 km/h 79 % 0 mm
18:15 23.6 °C 19.7 °C 1002.3 hPa Calm   1.6 km/h 79 % 0 mm
18:20 23.6 °C 19.9 °C 1002.3 hPa Calm   1.6 km/h 80 % 0 mm
18:25 23.6 °C 19.9 °C 1002.3 hPa Calm   1.6 km/h 80 % 0 mm
18:30 23.4 °C 19.5 °C 1002.3 hPa Calm   1.6 km/h 79 % 0 mm
18:35 23.4 °C 19.8 °C 1002.3 hPa Calm   1.6 km/h 80 % 0 mm
18:40 23.4 °C 20 °C 1002.3 hPa Calm   1.6 km/h 81 % 0 mm
18:45 23.4 °C 20 °C 1002.3 hPa Calm   1.6 km/h 81 % 0 mm
18:50 23.6 °C 20.3 °C 1002.6 hPa NNE 1.6 km/h 1.6 km/h 82 % 0 mm
18:55 23.6 °C 20.1 °C 1002.6 hPa NNW 1.6 km/h 4.8 km/h 81 % 0 mm
19:00 23.6 °C 20.1 °C 1002.6 hPa Calm   4.8 km/h 81 % 0 mm
19:05 23.7 °C 20.2 °C 1002.9 hPa Calm   4.8 km/h 81 % 0 mm
19:10 23.7 °C 20.2 °C 1002.6 hPa NW 1.6 km/h 4.8 km/h 81 % 0 mm
19:11 23.7 °C 20.2 °C 1002.6 hPa NW 1.6 km/h 4.8 km/h 81 % 0 mm
19:16 23.6 °C 19.9 °C 1002.6 hPa Calm   3.2 km/h 80 % 0 mm
19:21 23.6 °C 19.9 °C 1002.6 hPa Calm   3.2 km/h 80 % 0 mm
19:26 23.6 °C 19.9 °C 1002.9 hPa SW 1.6 km/h 3.2 km/h 80 % 0 mm
19:31 23.6 °C 19.9 °C 1002.9 hPa Calm   3.2 km/h 80 % 0 mm
19:36 23.5 °C 20 °C 1002.9 hPa NNW 1.6 km/h 4.8 km/h 81 % 0 mm
19:41 23.4 °C 20 °C 1002.9 hPa NW 1.6 km/h 4.8 km/h 81 % 0 mm
19:46 23.3 °C 20.1 °C 1002.9 hPa West 1.6 km/h 4.8 km/h 82 % 0 mm
19:51 23.1 °C 19.9 °C 1002.9 hPa Calm   4.8 km/h 82 % 0 mm
19:56 23 °C 20 °C 1002.9 hPa Calm   3.2 km/h 83 % 0 mm
20:01 22.8 °C 19.8 °C 1002.9 hPa Calm   3.2 km/h 83 % 0 mm
20:06 22.7 °C 19.9 °C 1003.3 hPa Calm   1.6 km/h 84 % 0 mm
20:11 22.6 °C 19.8 °C 1002.9 hPa Calm   3.2 km/h 84 % 0 mm
20:16 22.4 °C 19.6 °C 1002.9 hPa Calm   3.2 km/h 84 % 0 mm
20:21 22.2 °C 19.4 °C 1002.9 hPa Calm   3.2 km/h 84 % 0 mm
20:26 22 °C 19.2 °C 1002.9 hPa Calm   3.2 km/h 84 % 0 mm
20:31 21.8 °C 19.4 °C 1003.3 hPa Calm     86 % 0 mm
20:36 21.6 °C 19.2 °C 1003.3 hPa Calm     86 % 0 mm
20:41 21.4 °C 19.3 °C 1003.3 hPa Calm     88 % 0 mm
20:46 21.3 °C 19.2 °C 1003.6 hPa Calm     88 % 0 mm
20:51 21.1 °C 19.2 °C 1003.6 hPa Calm     89 % 0 mm
20:56 21 °C 19.3 °C 1003.9 hPa Calm     90 % 0 mm
21:01 20.9 °C 19.4 °C 1003.9 hPa West 1.6 km/h 1.6 km/h 91 % 0 mm
21:06 20.9 °C 19.4 °C 1004.3 hPa WSW 3.2 km/h 3.2 km/h 91 % 0 mm
21:11 21 °C 19.5 °C 1004.3 hPa Calm   3.2 km/h 91 % 0 mm
21:16 21.1 °C 19.6 °C 1004.6 hPa Calm   3.2 km/h 91 % 0 mm
21:21 21.1 °C 19.6 °C 1004.6 hPa Calm   3.2 km/h 91 % 0 mm
21:26 21.1 °C 19.7 °C 1004.6 hPa Calm   3.2 km/h 92 % 0 mm
21:31 21.1 °C 19.6 °C 1004.6 hPa Calm   1.6 km/h 91 % 0 mm
21:36 21.1 °C 19.6 °C 1005 hPa Calm   1.6 km/h 91 % 0 mm
21:41 21.1 °C 19.6 °C 1005 hPa Calm   1.6 km/h 91 % 0 mm
21:46 21.1 °C 19.7 °C 1005 hPa Calm   1.6 km/h 92 % 0 mm
21:51 21.1 °C 19.7 °C 1005 hPa Calm   1.6 km/h 92 % 0 mm
21:56 21.1 °C 19.7 °C 1005 hPa Calm   1.6 km/h 92 % 0 mm
22:06 21.1 °C 19.7 °C 1005.3 hPa Calm   1.6 km/h 92 % 0 mm
22:11 21 °C 19.6 °C 1005.3 hPa Calm   1.6 km/h 92 % 0 mm
22:17 21 °C 19.6 °C 1005.3 hPa Calm   3.2 km/h 92 % 0 mm
22:22 21 °C 19.6 °C 1005.3 hPa Calm   3.2 km/h 92 % 0 mm
22:27 20.9 °C 19.6 °C 1005.6 hPa Calm   4.8 km/h 92 % 0 mm
22:32 20.9 °C 19.6 °C 1006 hPa Calm   4.8 km/h 92 % 0 mm
22:37 20.8 °C 19.5 °C 1006 hPa WNW 1.6 km/h 4.8 km/h 92 % 0 mm
22:42 20.8 °C 19.5 °C 1005.6 hPa Calm   3.2 km/h 92 % 0 mm
22:47 20.7 °C 19.4 °C 1005.6 hPa Calm   4.8 km/h 92 % 0 mm
22:52 20.6 °C 19.3 °C 1005.6 hPa Calm   4.8 km/h 92 % 0 mm
22:57 20.4 °C 19.2 °C 1006 hPa Calm   4.8 km/h 93 % 0 mm
23:02 20.3 °C 19.1 °C 1006 hPa Calm     93 % 0 mm
23:07 20.3 °C 19.1 °C 1005.6 hPa Calm     93 % 0 mm
23:12 20.2 °C 19 °C 1005.6 hPa Calm     93 % 0 mm
23:17 20 °C 18.8 °C 1005.6 hPa Calm     93 % 0 mm
23:22 19.9 °C 18.9 °C 1005.6 hPa Calm     94 % 0 mm
23:27 19.9 °C 18.9 °C 1005.6 hPa Calm     94 % 0 mm
23:32 19.8 °C 18.8 °C 1006 hPa Calm   1.6 km/h 94 % 0 mm
23:37 19.7 °C 18.7 °C 1006 hPa Calm   1.6 km/h 94 % 0 mm
23:42 19.7 °C 18.7 °C 1006 hPa Calm   1.6 km/h 94 % 0 mm
23:47 19.6 °C 18.6 °C 1006 hPa Calm   1.6 km/h 94 % 0 mm
23:52 19.6 °C 18.6 °C 1005.6 hPa West 1.6 km/h 3.2 km/h 94 % 0 mm
23:57 19.6 °C 18.6 °C 1005.3 hPa Calm   3.2 km/h 94 % 0 mm
Spring, Texas: Villages of Bridgestone
Compliments of Weather Underground - 2.75 mb

Script developed by  Jim McMurry - jmcmurry@mwt.net Adapted for the template by  Wim van der Kuil - Leuven-Template.eu

You find our weather info also at:

UK Metoffice

WeatherCloud

Weather Underground

Mid-South Weather Network

AWEKAS

Citizen Weather Observer Program (CWOP)

HAMweather, WeatherForYou, PWS Weather

Equipment we use:

Weather-station
Davis Vantage Vue

Weather-program
Meteohub

Weather-server
Debian 7.9 x86 (Guest)

Provider
DreamHost

Davis Vantage Vue

Meteohub

Debian 7.9 x86 (Guest)

DreamHost